This is the latest recevied weather packets stored in our database for station/object SA7AHC. If no packets are shown the sender has not sent any weather packets the latest 10 day(s).
| Time | Temp. | Humidity | Pressure | Rain* | Wind** | Luminosity | Snow |
|---|---|---|---|---|---|---|---|
| 1787843524 | 20° C | 56% | 1025.6 hPa | 0 mm | - | 121 W/m² | - |
| 1787842924 | 20.56° C | 58% | 1025.7 hPa | 0 mm | - | 448 W/m² | - |
| 1787842321 | 19.44° C | 60% | 1025.8 hPa | 0 mm | - | 111 W/m² | - |
| 1787841722 | 20° C | 59% | 1025.8 hPa | 0 mm | - | 128 W/m² | - |
| 1787841121 | 20° C | 58% | 1025.8 hPa | 0 mm | - | 526 W/m² | - |
| 1787840522 | 19.44° C | 63% | 1025.8 hPa | 0 mm | - | 148 W/m² | - |
| 1787839922 | 19.44° C | 59% | 1025.8 hPa | 0 mm | - | 123 W/m² | - |
| 1787839321 | 20° C | 58% | 1025.8 hPa | 0 mm | - | 151 W/m² | - |
| 1787838723 | 20.56° C | 58% | 1025.9 hPa | 0 mm | - | 172 W/m² | - |
| 1787838121 | 21.11° C | 54% | 1025.9 hPa | 0 mm | - | 171 W/m² | - |
| 1787837521 | 21.11° C | 50% | 1025.8 hPa | 0 mm | - | 316 W/m² | - |
| 1787836921 | 21.67° C | 51% | 1026.2 hPa | 0 mm | - | 737 W/m² | - |
| 1787836321 | 20.56° C | 54% | 1026.1 hPa | 0 mm | - | 199 W/m² | - |
| 1787835725 | 21.67° C | 52% | 1026.3 hPa | 0 mm | - | 278 W/m² | - |
| 1787835122 | 21.11° C | 55% | 1026.4 hPa | 0 mm | - | 610 W/m² | - |
| 1787834521 | 20° C | 59% | 1026.3 hPa | 0 mm | - | 232 W/m² | - |
| 1787833921 | 20.56° C | 56% | 1026.4 hPa | 0 mm | - | 227 W/m² | - |
| 1787833319 | 21.67° C | 54% | 1026.8 hPa | 0 mm | - | 320 W/m² | - |
| 1787832720 | 20.56° C | 56% | 1026.7 hPa | 0 mm | - | 229 W/m² | - |
| 1787832116 | 20.56° C | 56% | 1026.9 hPa | 0 mm | - | 394 W/m² | - |
| 1787831507 | 21.67° C | 51% | 1027.1 hPa | 0 mm | - | 830 W/m² | - |
| 1787830908 | 19.44° C | 60% | 1027 hPa | 0 mm | - | 271 W/m² | - |
| 1787830302 | 19.44° C | 60% | 1027 hPa | 0 mm | - | 241 W/m² | - |
| 1787829700 | 20° C | 59% | 1027.3 hPa | 0 mm | - | 188 W/m² | - |
| 1787829097 | 20.56° C | 56% | 1027.3 hPa | 0 mm | - | 269 W/m² | - |
* Rain latest hour (hover to see other rain measurements)
** Current wind speed in m/s (hover to see current wind gust speed)